sensor_id;sensor_type;location;lat;lon;timestamp;pressure;altitude;pressure_sealevel;temperature;humidity
59588;BME280;45412;54.472;18.464;2023-03-19T00:00:33;99793.41;;;5.96;63.71
59588;BME280;45412;54.472;18.464;2023-03-19T00:03:38;99792.39;;;5.89;63.99
59588;BME280;45412;54.472;18.464;2023-03-19T00:06:24;99791.53;;;5.84;64.39
59588;BME280;45412;54.472;18.464;2023-03-19T00:09:10;99791.27;;;5.79;64.75
59588;BME280;45412;54.472;18.464;2023-03-19T00:11:57;99788.61;;;5.76;64.73
59588;BME280;45412;54.472;18.464;2023-03-19T00:14:44;99793.27;;;5.75;64.95
59588;BME280;45412;54.472;18.464;2023-03-19T00:17:30;99793.56;;;5.73;65.02
59588;BME280;45412;54.472;18.464;2023-03-19T00:20:17;99793.26;;;5.72;65.44
59588;BME280;45412;54.472;18.464;2023-03-19T00:23:05;99794.47;;;5.70;65.45
59588;BME280;45412;54.472;18.464;2023-03-19T00:25:53;99793.49;;;5.69;65.57
59588;BME280;45412;54.472;18.464;2023-03-19T00:28:40;99793.73;;;5.68;65.49
59588;BME280;45412;54.472;18.464;2023-03-19T00:31:27;99789.77;;;5.66;65.70
59588;BME280;45412;54.472;18.464;2023-03-19T00:34:14;99791.27;;;5.65;65.66
59588;BME280;45412;54.472;18.464;2023-03-19T00:37:04;99789.00;;;5.61;65.81
59588;BME280;45412;54.472;18.464;2023-03-19T00:39:50;99785.31;;;5.58;65.75
59588;BME280;45412;54.472;18.464;2023-03-19T00:42:36;99791.89;;;5.54;65.99
59588;BME280;45412;54.472;18.464;2023-03-19T00:45:24;99793.95;;;5.53;66.40
59588;BME280;45412;54.472;18.464;2023-03-19T00:48:11;99793.55;;;5.53;66.56
59588;BME280;45412;54.472;18.464;2023-03-19T00:51:08;99793.97;;;5.55;66.49
59588;BME280;45412;54.472;18.464;2023-03-19T00:53:56;99796.35;;;5.56;66.29
59588;BME280;45412;54.472;18.464;2023-03-19T00:56:42;99798.46;;;5.56;66.32
59588;BME280;45412;54.472;18.464;2023-03-19T00:59:28;99794.11;;;5.56;66.60
59588;BME280;45412;54.472;18.464;2023-03-19T01:02:15;99790.33;;;5.54;66.31
59588;BME280;45412;54.472;18.464;2023-03-19T01:05:02;99789.70;;;5.53;66.54
59588;BME280;45412;54.472;18.464;2023-03-19T01:07:49;99796.00;;;5.51;66.81
59588;BME280;45412;54.472;18.464;2023-03-19T01:10:36;99796.92;;;5.50;66.91
59588;BME280;45412;54.472;18.464;2023-03-19T01:13:23;99797.77;;;5.51;66.94
59588;BME280;45412;54.472;18.464;2023-03-19T01:16:09;99802.84;;;5.51;66.91
59588;BME280;45412;54.472;18.464;2023-03-19T01:18:56;99801.52;;;5.52;67.01
59588;BME280;45412;54.472;18.464;2023-03-19T01:21:44;99800.36;;;5.54;67.09
59588;BME280;45412;54.472;18.464;2023-03-19T01:24:33;99799.45;;;5.55;67.05
59588;BME280;45412;54.472;18.464;2023-03-19T01:27:20;99794.44;;;5.56;67.12
59588;BME280;45412;54.472;18.464;2023-03-19T01:30:08;99798.47;;;5.56;67.27
59588;BME280;45412;54.472;18.464;2023-03-19T01:33:15;99810.24;;;5.56;67.04
59588;BME280;45412;54.472;18.464;2023-03-19T01:36:22;99807.92;;;5.57;67.22
59588;BME280;45412;54.472;18.464;2023-03-19T01:39:29;99804.57;;;5.57;67.32
59588;BME280;45412;54.472;18.464;2023-03-19T01:42:16;99803.52;;;5.57;67.23
59588;BME280;45412;54.472;18.464;2023-03-19T01:45:36;99804.14;;;5.56;67.17
59588;BME280;45412;54.472;18.464;2023-03-19T01:48:57;99808.13;;;5.54;67.25
59588;BME280;45412;54.472;18.464;2023-03-19T01:51:46;99811.02;;;5.52;67.02
59588;BME280;45412;54.472;18.464;2023-03-19T01:54:58;99816.92;;;5.54;67.38
59588;BME280;45412;54.472;18.464;2023-03-19T01:58:12;99817.14;;;5.56;67.36
59588;BME280;45412;54.472;18.464;2023-03-19T02:00:59;99822.00;;;5.60;67.22
59588;BME280;45412;54.472;18.464;2023-03-19T02:03:49;99818.28;;;5.63;67.13
59588;BME280;45412;54.472;18.464;2023-03-19T02:06:41;99815.92;;;5.67;67.18
59588;BME280;45412;54.472;18.464;2023-03-19T02:09:29;99817.08;;;5.71;67.07
59588;BME280;45412;54.472;18.464;2023-03-19T02:12:16;99812.66;;;5.72;67.04
59588;BME280;45412;54.472;18.464;2023-03-19T02:15:04;99820.59;;;5.77;66.95
59588;BME280;45412;54.472;18.464;2023-03-19T02:17:51;99819.61;;;5.78;66.94
59588;BME280;45412;54.472;18.464;2023-03-19T02:21:03;99818.44;;;5.81;66.99
59588;BME280;45412;54.472;18.464;2023-03-19T02:24:20;99816.27;;;5.85;66.92
59588;BME280;45412;54.472;18.464;2023-03-19T02:27:19;99818.36;;;5.88;66.67
59588;BME280;45412;54.472;18.464;2023-03-19T02:30:30;99811.69;;;5.90;66.78
59588;BME280;45412;54.472;18.464;2023-03-19T02:33:18;99809.94;;;5.93;66.56
59588;BME280;45412;54.472;18.464;2023-03-19T02:36:10;99808.80;;;5.94;66.51
59588;BME280;45412;54.472;18.464;2023-03-19T02:39:01;99799.38;;;5.90;66.44
59588;BME280;45412;54.472;18.464;2023-03-19T02:41:51;99806.81;;;5.93;66.36
59588;BME280;45412;54.472;18.464;2023-03-19T02:44:38;99809.39;;;5.91;66.44
59588;BME280;45412;54.472;18.464;2023-03-19T02:47:26;99805.30;;;5.89;66.64
59588;BME280;45412;54.472;18.464;2023-03-19T02:50:12;99809.47;;;5.87;66.68
59588;BME280;45412;54.472;18.464;2023-03-19T02:52:58;99806.14;;;5.84;66.64
59588;BME280;45412;54.472;18.464;2023-03-19T02:55:45;99801.73;;;5.80;66.83
59588;BME280;45412;54.472;18.464;2023-03-19T02:58:32;99802.16;;;5.76;66.91
59588;BME280;45412;54.472;18.464;2023-03-19T03:01:19;99804.70;;;5.72;66.98
59588;BME280;45412;54.472;18.464;2023-03-19T03:04:06;99801.38;;;5.69;67.21
59588;BME280;45412;54.472;18.464;2023-03-19T03:06:52;99803.34;;;5.66;67.15
59588;BME280;45412;54.472;18.464;2023-03-19T03:09:39;99804.20;;;5.63;67.33
59588;BME280;45412;54.472;18.464;2023-03-19T03:12:26;99807.98;;;5.62;67.46
59588;BME280;45412;54.472;18.464;2023-03-19T03:15:12;99810.75;;;5.60;67.56
59588;BME280;45412;54.472;18.464;2023-03-19T03:17:59;99810.80;;;5.59;67.55
59588;BME280;45412;54.472;18.464;2023-03-19T03:20:46;99811.77;;;5.57;67.90
59588;BME280;45412;54.472;18.464;2023-03-19T03:23:32;99814.64;;;5.57;68.22
59588;BME280;45412;54.472;18.464;2023-03-19T03:26:19;99817.11;;;5.56;68.01
59588;BME280;45412;54.472;18.464;2023-03-19T03:29:06;99814.76;;;5.58;68.15
59588;BME280;45412;54.472;18.464;2023-03-19T03:31:53;99814.00;;;5.61;68.20
59588;BME280;45412;54.472;18.464;2023-03-19T03:34:39;99812.95;;;5.64;68.27
59588;BME280;45412;54.472;18.464;2023-03-19T03:37:26;99813.39;;;5.66;68.47
59588;BME280;45412;54.472;18.464;2023-03-19T03:40:13;99812.84;;;5.66;68.40
59588;BME280;45412;54.472;18.464;2023-03-19T03:43:01;99810.76;;;5.66;68.20
59588;BME280;45412;54.472;18.464;2023-03-19T03:45:47;99815.73;;;5.65;68.46
59588;BME280;45412;54.472;18.464;2023-03-19T03:48:35;99818.77;;;5.61;68.37
59588;BME280;45412;54.472;18.464;2023-03-19T03:51:21;99812.86;;;5.54;68.35
59588;BME280;45412;54.472;18.464;2023-03-19T03:54:07;99819.39;;;5.57;68.74
59588;BME280;45412;54.472;18.464;2023-03-19T03:56:54;99820.35;;;5.58;68.65
59588;BME280;45412;54.472;18.464;2023-03-19T03:59:41;99821.16;;;5.59;68.86
59588;BME280;45412;54.472;18.464;2023-03-19T04:02:27;99826.14;;;5.61;68.69
59588;BME280;45412;54.472;18.464;2023-03-19T04:05:15;99821.62;;;5.60;68.60
59588;BME280;45412;54.472;18.464;2023-03-19T04:08:01;99824.77;;;5.61;68.61
59588;BME280;45412;54.472;18.464;2023-03-19T04:10:48;99821.17;;;5.62;68.77
59588;BME280;45412;54.472;18.464;2023-03-19T04:13:35;99822.09;;;5.64;69.03
59588;BME280;45412;54.472;18.464;2023-03-19T04:16:23;99819.79;;;5.67;69.05
59588;BME280;45412;54.472;18.464;2023-03-19T04:19:10;99815.02;;;5.74;68.99
59588;BME280;45412;54.472;18.464;2023-03-19T04:21:57;99810.81;;;5.82;68.91
59588;BME280;45412;54.472;18.464;2023-03-19T04:24:43;99811.95;;;5.89;68.50
59588;BME280;45412;54.472;18.464;2023-03-19T04:27:29;99816.10;;;5.93;68.13
59588;BME280;45412;54.472;18.464;2023-03-19T04:30:16;99819.16;;;5.95;68.30
59588;BME280;45412;54.472;18.464;2023-03-19T04:33:04;99818.13;;;5.94;68.33
59588;BME280;45412;54.472;18.464;2023-03-19T04:35:52;99816.61;;;5.93;68.45
59588;BME280;45412;54.472;18.464;2023-03-19T04:38:39;99820.55;;;5.92;68.40
59588;BME280;45412;54.472;18.464;2023-03-19T04:41:26;99824.40;;;5.90;68.29
59588;BME280;45412;54.472;18.464;2023-03-19T04:44:42;99824.35;;;5.88;68.51
59588;BME280;45412;54.472;18.464;2023-03-19T04:47:28;99823.71;;;5.84;68.88
59588;BME280;45412;54.472;18.464;2023-03-19T04:50:17;99824.66;;;5.77;68.95
59588;BME280;45412;54.472;18.464;2023-03-19T04:53:05;99824.58;;;5.73;69.29
59588;BME280;45412;54.472;18.464;2023-03-19T04:55:54;99820.54;;;5.69;69.32
59588;BME280;45412;54.472;18.464;2023-03-19T04:58:41;99817.91;;;5.70;69.33
59588;BME280;45412;54.472;18.464;2023-03-19T05:01:28;99818.25;;;5.70;69.20
59588;BME280;45412;54.472;18.464;2023-03-19T05:04:18;99815.66;;;5.69;69.26
59588;BME280;45412;54.472;18.464;2023-03-19T05:07:05;99809.77;;;5.68;69.37
59588;BME280;45412;54.472;18.464;2023-03-19T05:09:52;99809.77;;;5.68;69.18
59588;BME280;45412;54.472;18.464;2023-03-19T05:12:40;99808.64;;;5.68;69.50
59588;BME280;45412;54.472;18.464;2023-03-19T05:15:26;99815.48;;;5.72;69.62
59588;BME280;45412;54.472;18.464;2023-03-19T05:18:24;99810.73;;;5.74;69.29
59588;BME280;45412;54.472;18.464;2023-03-19T05:21:12;99809.35;;;5.77;69.35
59588;BME280;45412;54.472;18.464;2023-03-19T05:23:59;99809.86;;;5.80;69.66
59588;BME280;45412;54.472;18.464;2023-03-19T05:26:46;99808.27;;;5.83;69.54
59588;BME280;45412;54.472;18.464;2023-03-19T05:29:40;99809.33;;;5.86;69.30
59588;BME280;45412;54.472;18.464;2023-03-19T05:32:37;99810.87;;;5.90;69.59
59588;BME280;45412;54.472;18.464;2023-03-19T05:35:25;99815.81;;;5.95;69.45
59588;BME280;45412;54.472;18.464;2023-03-19T05:38:13;99817.03;;;6.02;69.44
59588;BME280;45412;54.472;18.464;2023-03-19T05:41:05;99823.82;;;6.08;69.26
59588;BME280;45412;54.472;18.464;2023-03-19T05:44:01;99828.34;;;6.12;69.10
59588;BME280;45412;54.472;18.464;2023-03-19T05:47:14;99831.08;;;6.19;69.17
59588;BME280;45412;54.472;18.464;2023-03-19T05:50:06;99830.30;;;6.23;68.77
59588;BME280;45412;54.472;18.464;2023-03-19T05:52:52;99838.47;;;6.27;68.78
59588;BME280;45412;54.472;18.464;2023-03-19T05:55:39;99838.19;;;6.35;68.39
59588;BME280;45412;54.472;18.464;2023-03-19T05:58:28;99837.47;;;6.43;68.45
59588;BME280;45412;54.472;18.464;2023-03-19T06:01:14;99836.98;;;6.54;68.03
59588;BME280;45412;54.472;18.464;2023-03-19T06:04:01;99838.85;;;6.69;67.64
59588;BME280;45412;54.472;18.464;2023-03-19T06:06:51;99840.12;;;6.87;67.34
59588;BME280;45412;54.472;18.464;2023-03-19T06:09:39;99842.53;;;7.12;66.88
59588;BME280;45412;54.472;18.464;2023-03-19T06:12:26;99838.25;;;7.36;66.24
59588;BME280;45412;54.472;18.464;2023-03-19T06:15:29;99839.11;;;7.60;66.04
59588;BME280;45412;54.472;18.464;2023-03-19T06:18:22;99841.84;;;7.85;65.21
59588;BME280;45412;54.472;18.464;2023-03-19T06:21:09;99834.75;;;8.03;64.93
59588;BME280;45412;54.472;18.464;2023-03-19T06:23:56;99840.58;;;8.25;64.54
59588;BME280;45412;54.472;18.464;2023-03-19T06:26:48;99835.85;;;8.39;63.18
59588;BME280;45412;54.472;18.464;2023-03-19T06:29:34;99841.94;;;8.61;62.50
59588;BME280;45412;54.472;18.464;2023-03-19T06:32:32;99844.95;;;8.83;61.99
59588;BME280;45412;54.472;18.464;2023-03-19T06:35:23;99840.94;;;9.03;61.16
59588;BME280;45412;54.472;18.464;2023-03-19T06:38:09;99843.73;;;9.23;60.57
59588;BME280;45412;54.472;18.464;2023-03-19T06:40:56;99835.73;;;9.39;60.05
59588;BME280;45412;54.472;18.464;2023-03-19T06:43:43;99841.80;;;9.60;59.16
59588;BME280;45412;54.472;18.464;2023-03-19T06:46:29;99846.20;;;9.69;58.74
59588;BME280;45412;54.472;18.464;2023-03-19T06:49:16;99844.10;;;9.76;58.94
59588;BME280;45412;54.472;18.464;2023-03-19T06:52:03;99851.66;;;9.82;58.45
59588;BME280;45412;54.472;18.464;2023-03-19T06:54:49;99853.60;;;9.79;58.18
59588;BME280;45412;54.472;18.464;2023-03-19T06:57:36;99859.27;;;9.81;58.40
59588;BME280;45412;54.472;18.464;2023-03-19T07:00:23;99858.91;;;9.91;58.49
59588;BME280;45412;54.472;18.464;2023-03-19T07:03:09;99861.47;;;10.06;57.72
59588;BME280;45412;54.472;18.464;2023-03-19T07:05:56;99865.21;;;10.37;56.78
59588;BME280;45412;54.472;18.464;2023-03-19T07:08:42;99866.07;;;10.95;56.42
59588;BME280;45412;54.472;18.464;2023-03-19T07:11:31;99868.78;;;11.83;55.04
59588;BME280;45412;54.472;18.464;2023-03-19T07:14:22;99869.93;;;12.72;53.06
59588;BME280;45412;54.472;18.464;2023-03-19T07:17:08;99866.82;;;14.01;50.61
59588;BME280;45412;54.472;18.464;2023-03-19T07:19:56;99866.45;;;15.27;47.23
59588;BME280;45412;54.472;18.464;2023-03-19T07:22:43;99857.67;;;16.58;44.42
59588;BME280;45412;54.472;18.464;2023-03-19T07:25:30;99851.89;;;17.74;42.07
59588;BME280;45412;54.472;18.464;2023-03-19T07:28:16;99850.88;;;18.67;40.35
59588;BME280;45412;54.472;18.464;2023-03-19T07:31:03;99851.90;;;19.43;38.73
59588;BME280;45412;54.472;18.464;2023-03-19T07:33:49;99848.35;;;20.28;36.68
59588;BME280;45412;54.472;18.464;2023-03-19T07:36:36;99848.23;;;20.97;35.39
59588;BME280;45412;54.472;18.464;2023-03-19T07:39:23;99847.10;;;21.52;34.07
59588;BME280;45412;54.472;18.464;2023-03-19T07:42:10;99847.17;;;22.09;32.79
59588;BME280;45412;54.472;18.464;2023-03-19T07:44:58;99848.61;;;22.00;32.46
59588;BME280;45412;54.472;18.464;2023-03-19T07:47:49;99848.96;;;21.21;32.79
59588;BME280;45412;54.472;18.464;2023-03-19T07:50:36;99852.73;;;20.38;33.58
59588;BME280;45412;54.472;18.464;2023-03-19T07:53:23;99852.40;;;20.41;33.90
59588;BME280;45412;54.472;18.464;2023-03-19T07:56:11;99854.17;;;20.71;33.60
59588;BME280;45412;54.472;18.464;2023-03-19T07:58:57;99854.29;;;21.45;32.51
59588;BME280;45412;54.472;18.464;2023-03-19T08:01:45;99855.77;;;21.98;32.19
59588;BME280;45412;54.472;18.464;2023-03-19T08:04:33;99851.52;;;22.65;31.74
59588;BME280;45412;54.472;18.464;2023-03-19T08:07:20;99855.00;;;23.22;30.92
59588;BME280;45412;54.472;18.464;2023-03-19T08:10:07;99857.06;;;23.75;29.50
59588;BME280;45412;54.472;18.464;2023-03-19T08:12:53;99859.30;;;23.90;29.27
59588;BME280;45412;54.472;18.464;2023-03-19T08:15:40;99855.70;;;24.28;28.60
59588;BME280;45412;54.472;18.464;2023-03-19T08:18:27;99852.92;;;24.55;28.05
59588;BME280;45412;54.472;18.464;2023-03-19T08:21:13;99852.23;;;24.93;27.88
59588;BME280;45412;54.472;18.464;2023-03-19T08:23:59;99854.45;;;25.33;27.40
59588;BME280;45412;54.472;18.464;2023-03-19T08:26:46;99849.80;;;25.64;26.79
59588;BME280;45412;54.472;18.464;2023-03-19T08:29:33;99849.66;;;25.79;26.48
59588;BME280;45412;54.472;18.464;2023-03-19T08:32:20;99850.09;;;26.02;26.26
59588;BME280;45412;54.472;18.464;2023-03-19T08:35:07;99847.13;;;26.37;26.04
59588;BME280;45412;54.472;18.464;2023-03-19T08:37:54;99840.24;;;26.63;25.59
59588;BME280;45412;54.472;18.464;2023-03-19T08:40:41;99839.29;;;26.85;25.39
59588;BME280;45412;54.472;18.464;2023-03-19T08:43:30;99836.39;;;26.85;25.06
59588;BME280;45412;54.472;18.464;2023-03-19T08:46:17;99834.89;;;26.96;25.20
59588;BME280;45412;54.472;18.464;2023-03-19T08:49:04;99836.81;;;27.43;25.06
59588;BME280;45412;54.472;18.464;2023-03-19T08:51:50;99836.66;;;27.76;24.29
59588;BME280;45412;54.472;18.464;2023-03-19T08:54:37;99833.35;;;27.82;24.32
59588;BME280;45412;54.472;18.464;2023-03-19T08:57:23;99834.59;;;27.65;24.34
59588;BME280;45412;54.472;18.464;2023-03-19T09:00:11;99830.95;;;27.71;24.47
59588;BME280;45412;54.472;18.464;2023-03-19T09:02:57;99830.59;;;27.56;24.40
59588;BME280;45412;54.472;18.464;2023-03-19T09:05:44;99831.31;;;27.16;24.82
59588;BME280;45412;54.472;18.464;2023-03-19T09:08:31;99828.19;;;26.61;25.38
59588;BME280;45412;54.472;18.464;2023-03-19T09:11:17;99829.68;;;26.32;25.73
59588;BME280;45412;54.472;18.464;2023-03-19T09:14:04;99829.27;;;26.21;25.66
59588;BME280;45412;54.472;18.464;2023-03-19T09:16:51;99828.67;;;26.43;25.90
59588;BME280;45412;54.472;18.464;2023-03-19T09:19:37;99824.23;;;27.13;25.66
59588;BME280;45412;54.472;18.464;2023-03-19T09:22:24;99828.84;;;27.60;24.49
59588;BME280;45412;54.472;18.464;2023-03-19T09:25:11;99825.05;;;27.61;24.38
59588;BME280;45412;54.472;18.464;2023-03-19T09:27:57;99822.16;;;27.67;24.95
59588;BME280;45412;54.472;18.464;2023-03-19T09:30:48;99827.12;;;28.17;24.10
59588;BME280;45412;54.472;18.464;2023-03-19T09:33:35;99827.83;;;28.22;23.74
59588;BME280;45412;54.472;18.464;2023-03-19T09:36:21;99827.77;;;28.00;23.97
59588;BME280;45412;54.472;18.464;2023-03-19T09:39:07;99829.35;;;28.04;24.19
59588;BME280;45412;54.472;18.464;2023-03-19T09:42:10;99828.70;;;27.61;24.72
59588;BME280;45412;54.472;18.464;2023-03-19T09:45:01;99826.30;;;27.49;24.90
59588;BME280;45412;54.472;18.464;2023-03-19T09:47:53;99824.70;;;27.51;24.82
59588;BME280;45412;54.472;18.464;2023-03-19T09:50:41;99819.05;;;27.45;24.98
59588;BME280;45412;54.472;18.464;2023-03-19T09:53:55;99819.42;;;27.42;25.05
59588;BME280;45412;54.472;18.464;2023-03-19T09:56:43;99811.67;;;27.04;25.22
59588;BME280;45412;54.472;18.464;2023-03-19T09:59:30;99808.91;;;26.92;25.69
59588;BME280;45412;54.472;18.464;2023-03-19T10:12:21;99818.00;;;24.31;28.70
59588;BME280;45412;54.472;18.464;2023-03-19T10:15:35;99815.96;;;24.40;28.91
59588;BME280;45412;54.472;18.464;2023-03-19T10:18:32;99816.09;;;23.87;29.55
59588;BME280;45412;54.472;18.464;2023-03-19T10:21:45;99818.39;;;23.80;29.80
59588;BME280;45412;54.472;18.464;2023-03-19T10:24:39;99808.70;;;24.37;29.32
59588;BME280;45412;54.472;18.464;2023-03-19T10:27:28;99808.77;;;25.06;28.46
59588;BME280;45412;54.472;18.464;2023-03-19T10:30:17;99810.17;;;25.81;27.92
59588;BME280;45412;54.472;18.464;2023-03-19T10:33:52;99809.58;;;26.97;26.94
59588;BME280;45412;54.472;18.464;2023-03-19T10:36:42;99812.77;;;27.17;26.04
59588;BME280;45412;54.472;18.464;2023-03-19T10:39:35;99806.85;;;26.29;26.68
59588;BME280;45412;54.472;18.464;2023-03-19T10:45:37;99803.21;;;25.28;28.28
59588;BME280;45412;54.472;18.464;2023-03-19T10:48:25;99803.36;;;25.24;28.43
59588;BME280;45412;54.472;18.464;2023-03-19T10:51:25;99799.95;;;25.61;27.96
59588;BME280;45412;54.472;18.464;2023-03-19T10:54:28;99802.10;;;26.08;27.34
59588;BME280;45412;54.472;18.464;2023-03-19T10:57:25;99797.06;;;26.59;26.88
59588;BME280;45412;54.472;18.464;2023-03-19T11:00:21;99800.27;;;27.07;26.53
59588;BME280;45412;54.472;18.464;2023-03-19T11:06:26;99791.92;;;28.14;25.24
59588;BME280;45412;54.472;18.464;2023-03-19T11:09:18;99790.60;;;28.21;24.79
59588;BME280;45412;54.472;18.464;2023-03-19T11:12:23;99790.59;;;27.43;25.84
59588;BME280;45412;54.472;18.464;2023-03-19T11:15:22;99791.45;;;27.15;26.08
59588;BME280;45412;54.472;18.464;2023-03-19T11:18:34;99791.73;;;26.42;27.12
59588;BME280;45412;54.472;18.464;2023-03-19T11:21:27;99789.73;;;25.80;27.62
59588;BME280;45412;54.472;18.464;2023-03-19T11:24:15;99787.67;;;24.92;28.61
59588;BME280;45412;54.472;18.464;2023-03-19T11:27:02;99784.36;;;24.42;29.48
59588;BME280;45412;54.472;18.464;2023-03-19T11:29:49;99783.42;;;24.62;29.32
59588;BME280;45412;54.472;18.464;2023-03-19T11:36:30;99781.69;;;24.82;28.94
59588;BME280;45412;54.472;18.464;2023-03-19T11:39:47;99784.71;;;24.93;28.80
59588;BME280;45412;54.472;18.464;2023-03-19T11:46:03;99777.83;;;25.10;28.63
59588;BME280;45412;54.472;18.464;2023-03-19T11:52:56;99777.68;;;24.47;29.12
59588;BME280;45412;54.472;18.464;2023-03-19T12:05:20;99779.25;;;23.12;31.27
59588;BME280;45412;54.472;18.464;2023-03-19T12:11:28;99780.30;;;23.30;31.14
59588;BME280;45412;54.472;18.464;2023-03-19T12:14:52;99772.52;;;23.46;31.01
59588;BME280;45412;54.472;18.464;2023-03-19T12:29:03;99752.36;;;22.76;31.70
59588;BME280;45412;54.472;18.464;2023-03-19T12:32:09;99747.13;;;22.28;32.31
59588;BME280;45412;54.472;18.464;2023-03-19T12:35:04;99748.02;;;21.87;33.17
59588;BME280;45412;54.472;18.464;2023-03-19T12:38:03;99747.42;;;21.68;33.69
59588;BME280;45412;54.472;18.464;2023-03-19T12:41:02;99742.89;;;21.60;33.82
59588;BME280;45412;54.472;18.464;2023-03-19T12:44:04;99746.48;;;21.36;34.01
59588;BME280;45412;54.472;18.464;2023-03-19T12:47:15;99743.58;;;21.08;34.66
59588;BME280;45412;54.472;18.464;2023-03-19T12:50:10;99739.47;;;20.76;35.26
59588;BME280;45412;54.472;18.464;2023-03-19T12:52:59;99733.06;;;20.56;35.41
59588;BME280;45412;54.472;18.464;2023-03-19T12:55:53;99737.84;;;20.48;35.67
59588;BME280;45412;54.472;18.464;2023-03-19T13:02:59;99733.23;;;20.29;36.15
59588;BME280;45412;54.472;18.464;2023-03-19T13:06:00;99731.33;;;19.88;37.02
59588;BME280;45412;54.472;18.464;2023-03-19T13:09:02;99736.45;;;19.69;37.84
59588;BME280;45412;54.472;18.464;2023-03-19T13:12:04;99732.34;;;19.83;38.03
59588;BME280;45412;54.472;18.464;2023-03-19T13:15:38;99728.65;;;19.89;37.78
59588;BME280;45412;54.472;18.464;2023-03-19T13:18:57;99730.46;;;19.53;37.60
59588;BME280;45412;54.472;18.464;2023-03-19T13:21:46;99730.11;;;19.16;38.20
59588;BME280;45412;54.472;18.464;2023-03-19T13:24:40;99729.42;;;19.05;38.37
59588;BME280;45412;54.472;18.464;2023-03-19T13:27:32;99728.33;;;19.05;38.91
59588;BME280;45412;54.472;18.464;2023-03-19T13:30:22;99732.02;;;18.93;39.28
59588;BME280;45412;54.472;18.464;2023-03-19T13:33:20;99734.81;;;18.76;39.40
59588;BME280;45412;54.472;18.464;2023-03-19T13:36:11;99729.01;;;18.73;39.91
59588;BME280;45412;54.472;18.464;2023-03-19T13:39:00;99727.89;;;18.73;40.03
59588;BME280;45412;54.472;18.464;2023-03-19T13:44:53;99726.50;;;18.71;40.18
59588;BME280;45412;54.472;18.464;2023-03-19T13:47:50;99724.85;;;18.70;40.20
59588;BME280;45412;54.472;18.464;2023-03-19T13:50:54;99724.55;;;18.62;39.93
59588;BME280;45412;54.472;18.464;2023-03-19T13:59:48;99727.73;;;18.08;40.59
59588;BME280;45412;54.472;18.464;2023-03-19T14:05:32;99726.34;;;17.82;41.37
59588;BME280;45412;54.472;18.464;2023-03-19T14:08:28;99724.55;;;17.69;41.71
59588;BME280;45412;54.472;18.464;2023-03-19T14:11:28;99730.96;;;17.53;42.03
59588;BME280;45412;54.472;18.464;2023-03-19T14:14:16;99727.44;;;17.44;42.33
59588;BME280;45412;54.472;18.464;2023-03-19T14:17:03;99730.55;;;17.40;42.52
59588;BME280;45412;54.472;18.464;2023-03-19T14:19:51;99734.16;;;17.31;42.70
59588;BME280;45412;54.472;18.464;2023-03-19T14:23:11;99736.05;;;17.22;43.28
59588;BME280;45412;54.472;18.464;2023-03-19T14:26:18;99733.52;;;17.13;43.38
59588;BME280;45412;54.472;18.464;2023-03-19T14:29:06;99727.27;;;16.98;43.53
59588;BME280;45412;54.472;18.464;2023-03-19T14:32:05;99737.23;;;16.90;43.60
59588;BME280;45412;54.472;18.464;2023-03-19T14:34:54;99734.98;;;16.82;43.72
59588;BME280;45412;54.472;18.464;2023-03-19T14:37:47;99732.59;;;16.75;43.84
59588;BME280;45412;54.472;18.464;2023-03-19T14:40:43;99731.95;;;16.64;43.98
59588;BME280;45412;54.472;18.464;2023-03-19T14:50:26;99733.27;;;16.44;44.29
59588;BME280;45412;54.472;18.464;2023-03-19T14:53:51;99730.63;;;16.35;44.52
59588;BME280;45412;54.472;18.464;2023-03-19T14:56:39;99729.31;;;16.35;44.73
59588;BME280;45412;54.472;18.464;2023-03-19T14:59:25;99734.25;;;16.34;45.15
59588;BME280;45412;54.472;18.464;2023-03-19T15:02:46;99731.50;;;16.32;45.05
59588;BME280;45412;54.472;18.464;2023-03-19T15:05:34;99732.17;;;16.27;45.40
59588;BME280;45412;54.472;18.464;2023-03-19T15:08:23;99736.88;;;16.22;45.34
59588;BME280;45412;54.472;18.464;2023-03-19T15:15:07;99732.27;;;16.09;45.43
59588;BME280;45412;54.472;18.464;2023-03-19T15:18:06;99734.70;;;16.01;46.10
59588;BME280;45412;54.472;18.464;2023-03-19T15:20:54;99728.34;;;15.94;46.08
59588;BME280;45412;54.472;18.464;2023-03-19T15:23:45;99731.73;;;15.87;46.34
59588;BME280;45412;54.472;18.464;2023-03-19T15:26:35;99733.52;;;15.78;46.74
59588;BME280;45412;54.472;18.464;2023-03-19T15:29:33;99732.29;;;15.70;47.30
59588;BME280;45412;54.472;18.464;2023-03-19T15:32:38;99735.84;;;15.58;47.34
59588;BME280;45412;54.472;18.464;2023-03-19T15:35:46;99743.45;;;15.41;47.70
59588;BME280;45412;54.472;18.464;2023-03-19T15:38:43;99740.61;;;15.25;47.89
59588;BME280;45412;54.472;18.464;2023-03-19T15:41:34;99746.35;;;15.13;48.14
59588;BME280;45412;54.472;18.464;2023-03-19T15:47:26;99756.56;;;14.86;48.85
59588;BME280;45412;54.472;18.464;2023-03-19T15:50:18;99754.39;;;14.75;49.53
59588;BME280;45412;54.472;18.464;2023-03-19T15:53:11;99757.99;;;14.64;49.65
59588;BME280;45412;54.472;18.464;2023-03-19T15:56:01;99756.67;;;14.50;49.94
59588;BME280;45412;54.472;18.464;2023-03-19T15:58:50;99749.59;;;14.31;50.02
59588;BME280;45412;54.472;18.464;2023-03-19T16:01:39;99759.68;;;14.21;50.26
59588;BME280;45412;54.472;18.464;2023-03-19T16:04:27;99761.55;;;14.09;50.44
59588;BME280;45412;54.472;18.464;2023-03-19T16:10:39;99760.36;;;13.79;51.07
59588;BME280;45412;54.472;18.464;2023-03-19T16:13:41;99766.77;;;13.60;51.25
59588;BME280;45412;54.472;18.464;2023-03-19T16:16:32;99767.22;;;13.46;51.64
59588;BME280;45412;54.472;18.464;2023-03-19T16:19:33;99769.21;;;13.34;51.72
59588;BME280;45412;54.472;18.464;2023-03-19T16:22:23;99768.86;;;13.19;52.15
59588;BME280;45412;54.472;18.464;2023-03-19T16:25:18;99769.05;;;13.03;52.46
59588;BME280;45412;54.472;18.464;2023-03-19T16:28:17;99770.33;;;12.87;52.61